Time;durP1;ratioP1;P1;durP2;ratioP2;P2;SDS_P1;SDS_P2;PMS_P1;PMS_P2;Temp;Humidity;BMP_temperature;BMP_pressure;BME280_temperature;BME280_humidity;BME280_pressure;Samples;Min_cycle;Max_cycle;Signal;HPM_P1;HPM_P2
2022/09/27 00:00:25;;;;;;;0.60;0.50;;;12.80;99.90;;;;;;5069331;28;20236;-82
2022/09/27 00:02:51;;;;;;;1.87;0.50;;;12.80;99.90;;;;;;5073386;28;20039;-80
2022/09/27 00:05:17;;;;;;;2.93;0.60;;;12.80;99.90;;;;;;5067435;28;20036;-81
2022/09/27 00:07:43;;;;;;;0.70;0.50;;;12.80;99.90;;;;;;5069860;28;20020;-82
2022/09/27 00:10:10;;;;;;;0.85;0.50;;;12.90;99.90;;;;;;5046403;28;20116;-81
2022/09/27 00:12:36;;;;;;;0.75;0.43;;;12.90;99.90;;;;;;5071460;28;20496;-81
2022/09/27 00:15:03;;;;;;;1.45;0.43;;;12.90;99.90;;;;;;5064426;28;20696;-81
2022/09/27 00:17:29;;;;;;;0.57;0.40;;;12.90;99.90;;;;;;5067479;28;20435;-82
2022/09/27 00:19:57;;;;;;;0.50;0.50;;;12.90;99.90;;;;;;5092717;27;20024;-82
2022/09/27 00:22:24;;;;;;;1.08;0.50;;;12.90;99.90;;;;;;5057224;28;20028;-82
2022/09/27 00:24:50;;;;;;;0.68;0.50;;;12.90;99.90;;;;;;5048226;28;20028;-82
2022/09/27 00:27:16;;;;;;;1.52;0.73;;;12.80;99.90;;;;;;5059187;28;20024;-81
2022/09/27 00:29:42;;;;;;;1.33;0.60;;;12.80;99.90;;;;;;5061492;28;20555;-82
2022/09/27 00:32:08;;;;;;;1.50;0.45;;;12.90;99.90;;;;;;5066277;28;20227;-82
2022/09/27 00:34:34;;;;;;;1.67;0.70;;;12.80;99.90;;;;;;5067722;28;20043;-81
2022/09/27 00:36:59;;;;;;;2.20;0.77;;;12.80;99.90;;;;;;5063605;28;20343;-82
2022/09/27 00:39:25;;;;;;;1.25;0.60;;;12.80;99.90;;;;;;5063872;28;20039;-81
2022/09/27 00:41:51;;;;;;;1.43;0.50;;;12.90;99.90;;;;;;5051196;28;20032;-82
2022/09/27 00:44:28;;;;;;;0.67;0.50;;;12.80;99.90;;;;;;5074308;28;20029;-82
2022/09/27 00:47:11;;;;;;;0.85;0.65;;;12.80;99.90;;;;;;5061804;28;20119;-82
2022/09/27 00:49:43;;;;;;;1.25;0.63;;;12.80;99.90;;;;;;5062169;28;20028;-82
2022/09/27 00:52:19;;;;;;;2.63;0.70;;;12.80;99.90;;;;;;5076220;28;20046;-82
2022/09/27 00:54:49;;;;;;;1.02;0.70;;;12.80;99.90;;;;;;5058336;28;20039;-80
2022/09/27 00:57:16;;;;;;;2.63;0.97;;;12.80;99.90;;;;;;5058547;28;20033;-82
2022/09/27 00:59:47;;;;;;;1.90;0.73;;;12.80;99.90;;;;;;5065147;28;20385;-81
2022/09/27 01:02:13;;;;;;;1.75;0.70;;;12.80;99.90;;;;;;5061296;28;20293;-81
2022/09/27 01:04:41;;;;;;;1.98;0.70;;;12.70;99.90;;;;;;5081401;28;20422;-81
2022/09/27 01:07:07;;;;;;;2.08;0.80;;;12.80;99.90;;;;;;5057129;28;20563;-82
2022/09/27 01:09:33;;;;;;;2.77;0.63;;;12.70;99.90;;;;;;5073478;28;20100;-82
2022/09/27 01:12:24;;;;;;;1.05;0.68;;;12.70;99.90;;;;;;5064429;28;20024;-81
2022/09/27 01:15:36;;;;;;;2.15;0.73;;;12.70;99.90;;;;;;5032491;28;20061;-82
2022/09/27 01:18:16;;;;;;;1.87;0.60;;;12.70;99.90;;;;;;5010495;28;20035;-81
2022/09/27 01:21:08;;;;;;;1.70;0.70;;;12.70;99.90;;;;;;5064857;28;20503;-81
2022/09/27 01:23:45;;;;;;;1.35;0.60;;;12.60;99.90;;;;;;5045073;28;20035;-80
2022/09/27 01:26:30;;;;;;;0.95;0.47;;;12.60;99.90;;;;;;5043377;28;20205;-79
2022/09/27 01:29:00;;;;;;;0.85;0.40;;;12.60;99.90;;;;;;5048005;28;20024;-80
2022/09/27 01:31:34;;;;;;;1.07;0.43;;;12.60;99.90;;;;;;5059559;28;20111;-81
2022/09/27 01:34:10;;;;;;;0.57;0.40;;;12.60;99.90;;;;;;5054707;28;20081;-81
2022/09/27 01:36:50;;;;;;;0.77;0.30;;;12.60;99.90;;;;;;5047470;28;20551;-81
2022/09/27 01:39:40;;;;;;;1.05;0.40;;;12.60;99.90;;;;;;5069110;28;20036;-81
2022/09/27 01:42:32;;;;;;;1.33;0.40;;;12.60;99.90;;;;;;5062926;28;20024;-80
2022/09/27 01:45:25;;;;;;;1.77;0.40;;;12.60;99.90;;;;;;5061229;28;20025;-81
2022/09/27 01:47:57;;;;;;;0.73;0.40;;;12.60;99.90;;;;;;5061769;28;20037;-80
2022/09/27 01:50:39;;;;;;;0.80;0.40;;;12.60;99.90;;;;;;5065250;28;20051;-81
2022/09/27 01:53:11;;;;;;;1.63;0.50;;;12.50;99.90;;;;;;5058906;28;21085;-80
2022/09/27 01:55:38;;;;;;;2.20;0.50;;;12.50;99.90;;;;;;5074320;28;20119;-80
2022/09/27 01:58:53;;;;;;;1.50;0.40;;;12.50;99.90;;;;;;5070717;28;20035;-81
2022/09/27 02:01:22;;;;;;;1.23;0.47;;;12.50;99.90;;;;;;5046870;28;20144;-80
2022/09/27 02:03:50;;;;;;;0.43;0.40;;;12.40;99.90;;;;;;5065307;28;20031;-81
2022/09/27 02:06:33;;;;;;;1.02;0.40;;;12.40;99.90;;;;;;5051825;28;20024;-80
2022/09/27 02:09:38;;;;;;;1.98;0.40;;;12.40;99.90;;;;;;5078516;28;20028;-81
2022/09/27 02:12:07;;;;;;;1.13;0.37;;;12.40;99.90;;;;;;5038118;28;20105;-80
2022/09/27 02:14:45;;;;;;;1.08;0.40;;;12.40;99.90;;;;;;5064735;28;20500;-81
2022/09/27 02:17:36;;;;;;;1.25;0.38;;;12.40;99.90;;;;;;5052432;28;20023;-80
2022/09/27 02:20:41;;;;;;;0.60;0.40;;;12.40;99.90;;;;;;5074227;28;20110;-80
2022/09/27 02:23:13;;;;;;;0.52;0.30;;;12.40;99.90;;;;;;5052701;28;20051;-80
2022/09/27 02:25:47;;;;;;;1.00;0.40;;;12.40;99.90;;;;;;5064538;28;20024;-80
2022/09/27 02:28:29;;;;;;;0.68;0.40;;;12.40;99.90;;;;;;5063593;28;20036;-79
2022/09/27 02:30:55;;;;;;;0.50;0.30;;;12.40;99.90;;;;;;5071031;28;20011;-80
2022/09/27 02:33:25;;;;;;;0.50;0.40;;;12.40;99.90;;;;;;5047613;28;20367;-80
2022/09/27 02:35:51;;;;;;;0.70;0.40;;;12.30;99.90;;;;;;5077744;28;20029;-81
2022/09/27 02:38:17;;;;;;;0.43;0.30;;;12.30;99.90;;;;;;5052289;28;20047;-80
2022/09/27 02:40:45;;;;;;;1.10;0.40;;;12.40;99.90;;;;;;5050732;28;20031;-81
2022/09/27 02:43:16;;;;;;;0.40;0.30;;;12.30;99.90;;;;;;5062819;28;20034;-81
2022/09/27 02:46:09;;;;;;;0.43;0.40;;;12.30;99.90;;;;;;5069516;28;20119;-81
2022/09/27 02:49:09;;;;;;;0.52;0.30;;;12.30;99.90;;;;;;5046473;28;20044;-81
2022/09/27 02:51:58;;;;;;;0.77;0.60;;;12.30;99.90;;;;;;5069420;28;20123;-81
2022/09/27 02:54:32;;;;;;;0.30;0.30;;;12.30;99.90;;;;;;5009771;28;20224;-80
2022/09/27 02:57:11;;;;;;;1.17;0.35;;;12.30;99.90;;;;;;5078119;28;20503;-81
2022/09/27 03:00:06;;;;;;;0.43;0.30;;;12.30;99.90;;;;;;5041762;28;20011;-81
2022/09/27 03:03:08;;;;;;;0.30;0.30;;;12.30;99.90;;;;;;5083376;28;20298;-81
2022/09/27 03:06:01;;;;;;;0.57;0.30;;;12.20;99.90;;;;;;5047121;28;20517;-81
2022/09/27 03:08:27;;;;;;;0.52;0.35;;;12.20;99.90;;;;;;5067843;28;20215;-81
2022/09/27 03:10:52;;;;;;;0.85;0.30;;;12.20;99.90;;;;;;5055147;28;20035;-81
2022/09/27 03:13:21;;;;;;;0.83;0.40;;;12.20;99.90;;;;;;5064008;28;20077;-81
2022/09/27 03:15:46;;;;;;;0.60;0.30;;;12.20;99.90;;;;;;5063246;28;20023;-81
2022/09/27 03:18:12;;;;;;;0.43;0.30;;;12.20;99.90;;;;;;5076524;28;20036;-81
2022/09/27 03:20:37;;;;;;;0.30;0.30;;;12.20;99.90;;;;;;5033800;28;20445;-81
2022/09/27 03:23:03;;;;;;;0.40;0.30;;;12.20;99.90;;;;;;5079456;28;20052;-81
2022/09/27 03:25:29;;;;;;;0.30;0.30;;;12.20;99.90;;;;;;5067329;28;20158;-81
2022/09/27 03:27:54;;;;;;;0.82;0.30;;;12.20;99.90;;;;;;5068929;28;20175;-81
2022/09/27 03:30:20;;;;;;;0.53;0.40;;;12.20;99.90;;;;;;5035065;28;20707;-81
2022/09/27 03:32:46;;;;;;;0.30;0.25;;;12.20;99.90;;;;;;5077356;28;20024;-81
2022/09/27 03:35:12;;;;;;;0.43;0.30;;;12.10;99.90;;;;;;5051119;28;20029;-81
2022/09/27 03:37:38;;;;;;;0.40;0.30;;;12.10;99.90;;;;;;5067895;28;20026;-81
2022/09/27 03:40:04;;;;;;;0.40;0.40;;;12.10;99.90;;;;;;5066619;28;20034;-81
2022/09/27 03:42:30;;;;;;;0.70;0.40;;;12.10;99.90;;;;;;5076850;28;20020;-81
2022/09/27 03:44:56;;;;;;;0.70;0.23;;;12.10;99.90;;;;;;5052288;28;20485;-81
2022/09/27 03:47:21;;;;;;;0.40;0.30;;;12.00;99.90;;;;;;5049360;28;20211;-82
2022/09/27 03:49:47;;;;;;;0.90;0.33;;;12.00;99.90;;;;;;5067509;28;20441;-81
2022/09/27 03:52:13;;;;;;;0.40;0.30;;;12.00;99.90;;;;;;5067250;28;20282;-81
2022/09/27 03:54:39;;;;;;;0.38;0.30;;;12.00;99.90;;;;;;5083023;28;20198;-81
2022/09/27 03:57:05;;;;;;;0.57;0.30;;;11.90;99.90;;;;;;5068144;28;20035;-81
2022/09/27 03:59:30;;;;;;;0.50;0.35;;;11.90;99.90;;;;;;5085526;28;20039;-81
2022/09/27 04:01:56;;;;;;;0.30;0.30;;;11.90;99.90;;;;;;5057874;28;20411;-81
2022/09/27 04:04:22;;;;;;;0.30;0.30;;;11.90;99.90;;;;;;5061274;28;20102;-81
2022/09/27 04:06:48;;;;;;;0.35;0.30;;;11.90;99.90;;;;;;5047469;28;20032;-81
2022/09/27 04:09:13;;;;;;;0.40;0.40;;;11.90;99.90;;;;;;5042754;28;20024;-81
2022/09/27 04:11:39;;;;;;;0.60;0.30;;;11.90;99.90;;;;;;5075419;28;20020;-81
2022/09/27 04:14:05;;;;;;;0.30;0.28;;;11.90;99.90;;;;;;5078427;28;20080;-81
2022/09/27 04:16:31;;;;;;;0.50;0.30;;;11.90;99.90;;;;;;5047953;28;20024;-81
2022/09/27 04:18:57;;;;;;;0.95;0.40;;;11.90;99.90;;;;;;5078668;28;20027;-81
2022/09/27 04:21:23;;;;;;;4.13;0.40;;;11.90;99.90;;;;;;5050370;28;20393;-80
2022/09/27 04:23:48;;;;;;;0.52;0.40;;;11.90;99.90;;;;;;5076285;28;20108;-81
2022/09/27 04:26:14;;;;;;;1.17;0.63;;;11.90;99.90;;;;;;5058877;28;20665;-81
2022/09/27 04:28:39;;;;;;;0.65;0.40;;;11.90;99.90;;;;;;5079676;28;20028;-81
2022/09/27 04:31:05;;;;;;;0.87;0.40;;;11.90;99.90;;;;;;5064132;28;20016;-81
2022/09/27 04:33:31;;;;;;;0.57;0.40;;;11.90;99.90;;;;;;5066742;28;20028;-81
2022/09/27 04:38:40;;;;;;;0.90;0.45;;;12.00;99.90;;;;;;5056674;28;20131;-81
2022/09/27 04:41:06;;;;;;;0.40;0.40;;;12.00;99.90;;;;;;5043234;28;20115;-81
2022/09/27 04:43:32;;;;;;;0.68;0.50;;;12.00;99.90;;;;;;5070825;28;20440;-81
2022/09/27 04:45:57;;;;;;;0.40;0.37;;;12.00;99.90;;;;;;5084239;28;20266;-80
2022/09/27 04:48:25;;;;;;;0.75;0.50;;;12.00;99.90;;;;;;5060321;28;20082;-81
2022/09/27 04:51:03;;;;;;;0.77;0.50;;;12.00;99.90;;;;;;5066925;28;20093;-81
2022/09/27 04:53:30;;;;;;;1.33;0.57;;;12.00;99.90;;;;;;5038890;28;20017;-82
2022/09/27 04:55:55;;;;;;;0.60;0.50;;;12.10;99.90;;;;;;5069976;28;20465;-82
2022/09/27 04:58:22;;;;;;;1.23;0.60;;;12.10;99.90;;;;;;5069437;28;20020;-82
2022/09/27 05:00:51;;;;;;;2.08;0.85;;;12.10;99.90;;;;;;5076662;28;20034;-82
2022/09/27 05:03:18;;;;;;;0.83;0.60;;;12.10;99.90;;;;;;5031084;28;20039;-82
2022/09/27 05:05:44;;;;;;;0.88;0.50;;;12.10;99.90;;;;;;5058691;27;20098;-82
2022/09/27 05:08:13;;;;;;;0.88;0.60;;;12.10;99.90;;;;;;5058249;28;20032;-82
2022/09/27 05:10:38;;;;;;;1.23;0.65;;;12.10;99.90;;;;;;5043469;28;21525;-81
2022/09/27 05:13:05;;;;;;;0.73;0.57;;;12.10;99.90;;;;;;5049389;28;20028;-81
2022/09/27 05:15:31;;;;;;;0.80;0.60;;;12.10;99.90;;;;;;5063130;28;20020;-81
2022/09/27 05:17:57;;;;;;;1.27;0.70;;;12.10;99.90;;;;;;5070463;28;20393;-81
2022/09/27 05:20:24;;;;;;;6.03;0.80;;;12.10;99.90;;;;;;5043291;28;20621;-81
2022/09/27 05:22:50;;;;;;;0.95;0.60;;;12.10;99.90;;;;;;5057025;28;20039;-81
2022/09/27 05:25:16;;;;;;;1.65;0.90;;;12.10;99.90;;;;;;5053869;28;20051;-81
2022/09/27 05:27:42;;;;;;;8.48;3.83;;;12.00;99.90;;;;;;5065385;28;20024;-81
2022/09/27 05:30:07;;;;;;;7.03;2.60;;;12.00;99.90;;;;;;5043776;28;20225;-81
2022/09/27 05:32:34;;;;;;;5.07;1.88;;;12.00;99.90;;;;;;5067770;28;20028;-81
2022/09/27 05:35:00;;;;;;;2.97;1.30;;;12.00;99.90;;;;;;5027514;28;20024;-81
2022/09/27 05:37:25;;;;;;;2.87;1.20;;;12.00;99.90;;;;;;5049521;28;20508;-80
2022/09/27 05:39:51;;;;;;;3.00;1.20;;;12.00;99.90;;;;;;5046462;28;20114;-81
2022/09/27 05:42:17;;;;;;;2.03;1.02;;;12.00;99.90;;;;;;5061878;28;20059;-81
2022/09/27 05:44:47;;;;;;;2.30;1.13;;;12.00;99.90;;;;;;5070658;28;20154;-81
2022/09/27 05:47:14;;;;;;;1.92;1.10;;;12.00;99.90;;;;;;5060031;28;20112;-81
2022/09/27 05:49:40;;;;;;;1.77;1.10;;;12.00;99.90;;;;;;5072722;28;20024;-81
2022/09/27 05:52:06;;;;;;;4.30;1.98;;;11.90;99.90;;;;;;5036420;28;20228;-81
2022/09/27 05:54:32;;;;;;;1.48;0.90;;;12.00;99.90;;;;;;5060332;28;20023;-81
2022/09/27 05:56:58;;;;;;;1.97;1.23;;;12.00;99.90;;;;;;5039452;28;20057;-81
2022/09/27 05:59:26;;;;;;;2.95;1.10;;;12.00;99.90;;;;;;5055482;28;20415;-82
2022/09/27 06:01:53;;;;;;;1.95;1.20;;;12.00;99.90;;;;;;5071959;28;20036;-82
2022/09/27 06:04:20;;;;;;;2.17;1.30;;;12.00;99.90;;;;;;5050379;28;20322;-82
2022/09/27 06:06:46;;;;;;;1.95;1.23;;;11.90;99.90;;;;;;5057502;28;20735;-83
2022/09/27 06:09:13;;;;;;;1.80;1.13;;;12.00;99.90;;;;;;5059373;28;20485;-82
2022/09/27 06:11:39;;;;;;;2.10;1.20;;;11.90;99.90;;;;;;5062698;28;20530;-82
2022/09/27 06:14:05;;;;;;;1.70;0.95;;;11.90;99.90;;;;;;5050119;28;20326;-82
2022/09/27 06:16:30;;;;;;;1.83;1.30;;;11.90;99.90;;;;;;5077596;28;20031;-82
2022/09/27 06:18:56;;;;;;;1.83;1.15;;;11.90;99.90;;;;;;5074719;28;20197;-84
2022/09/27 06:21:23;;;;;;;2.20;1.50;;;11.80;99.90;;;;;;5075390;28;20389;-84
2022/09/27 06:23:48;;;;;;;1.83;1.30;;;11.80;99.90;;;;;;5070353;28;20245;-82
2022/09/27 06:26:15;;;;;;;4.78;2.22;;;11.80;99.90;;;;;;5061992;28;20027;-83
2022/09/27 06:28:41;;;;;;;7.05;3.40;;;11.80;99.90;;;;;;5043331;28;20016;-82
2022/09/27 06:31:07;;;;;;;6.23;3.30;;;11.80;99.90;;;;;;5068203;28;20072;-82
2022/09/27 06:33:34;;;;;;;6.63;2.78;;;11.80;99.90;;;;;;5075446;28;20473;-82
2022/09/27 06:36:01;;;;;;;5.88;2.83;;;11.80;99.90;;;;;;5069584;28;20097;-82
2022/09/27 06:38:27;;;;;;;4.75;2.50;;;11.80;99.90;;;;;;5067938;28;20251;-82
2022/09/27 06:40:52;;;;;;;3.47;1.63;;;11.80;99.90;;;;;;5042926;28;20046;-82
2022/09/27 06:43:19;;;;;;;2.73;1.50;;;11.80;99.90;;;;;;5057768;28;20774;-81
2022/09/27 06:45:46;;;;;;;2.13;1.50;;;11.90;99.90;;;;;;5073119;28;20021;-82
2022/09/27 06:48:14;;;;;;;3.10;1.40;;;11.90;99.90;;;;;;5059780;28;20641;-81
2022/09/27 06:50:43;;;;;;;2.58;1.42;;;11.90;99.90;;;;;;5061237;28;20466;-81
2022/09/27 06:53:10;;;;;;;2.35;1.27;;;12.00;99.90;;;;;;5064378;28;20596;-82
2022/09/27 06:55:37;;;;;;;2.10;1.20;;;11.90;99.90;;;;;;5039218;28;20053;-82
2022/09/27 07:00:50;;;;;;;2.67;1.30;;;12.00;99.90;;;;;;5075742;27;20082;-82
2022/09/27 07:03:15;;;;;;;2.05;1.30;;;12.00;99.90;;;;;;5071036;28;20168;-81
2022/09/27 07:05:41;;;;;;;1.60;1.20;;;12.00;99.90;;;;;;5055570;28;20021;-81
2022/09/27 07:08:10;;;;;;;2.17;1.38;;;12.10;99.90;;;;;;5061286;28;20240;-81
2022/09/27 07:10:37;;;;;;;1.50;1.20;;;12.10;99.90;;;;;;5060144;28;20029;-81
2022/09/27 07:13:08;;;;;;;3.20;1.77;;;12.10;99.90;;;;;;5034064;28;20040;-81
2022/09/27 07:15:37;;;;;;;2.17;1.42;;;12.20;99.90;;;;;;5063470;28;20098;-81
2022/09/27 07:18:05;;;;;;;1.80;1.05;;;12.20;99.90;;;;;;5044695;28;20028;-81
2022/09/27 07:20:31;;;;;;;1.50;1.20;;;12.20;99.90;;;;;;5079911;28;20495;-82
2022/09/27 07:22:58;;;;;;;2.03;1.10;;;12.30;99.90;;;;;;5046670;28;20574;-81
2022/09/27 07:25:24;;;;;;;1.57;1.07;;;12.40;99.90;;;;;;5070480;28;20323;-81
2022/09/27 07:27:51;;;;;;;2.42;1.30;;;12.60;99.90;;;;;;5042131;28;20031;-80
2022/09/27 07:30:17;;;;;;;1.40;1.15;;;12.60;99.90;;;;;;5056105;28;20257;-81
2022/09/27 07:32:43;;;;;;;1.80;1.30;;;12.70;99.90;;;;;;5049167;28;20017;-81
2022/09/27 07:35:10;;;;;;;1.87;1.27;;;12.80;99.90;;;;;;5070750;28;20106;-81
2022/09/27 07:37:36;;;;;;;1.70;1.20;;;12.80;99.90;;;;;;5028288;28;20596;-81
2022/09/27 07:40:06;;;;;;;3.33;1.30;;;12.90;99.90;;;;;;5070988;28;20025;-81
2022/09/27 07:42:32;;;;;;;2.10;1.23;;;12.90;99.90;;;;;;5030315;28;20028;-80
2022/09/27 07:44:58;;;;;;;2.03;1.20;;;12.90;99.90;;;;;;5052106;28;20549;-80
2022/09/27 07:47:25;;;;;;;3.07;1.30;;;12.90;99.90;;;;;;5051600;28;20536;-81
2022/09/27 07:49:51;;;;;;;2.25;1.33;;;12.90;99.90;;;;;;5063425;28;20631;-81
2022/09/27 07:52:18;;;;;;;1.98;1.20;;;12.90;99.90;;;;;;5077085;28;20642;-81
2022/09/27 07:54:44;;;;;;;1.95;1.30;;;12.90;99.90;;;;;;5038805;28;20380;-81
2022/09/27 07:57:10;;;;;;;2.58;1.30;;;12.90;99.90;;;;;;5044174;28;20500;-81
2022/09/27 07:59:36;;;;;;;2.70;1.40;;;12.90;99.90;;;;;;5037757;28;20023;-81
2022/09/27 08:02:01;;;;;;;2.80;1.58;;;13.10;99.90;;;;;;5074552;28;20019;-81
2022/09/27 08:04:27;;;;;;;2.50;1.43;;;13.20;99.90;;;;;;5048799;28;20028;-81
2022/09/27 08:06:54;;;;;;;1.98;1.50;;;13.50;99.90;;;;;;5072232;28;20495;-81
2022/09/27 08:09:19;;;;;;;2.83;1.73;;;13.70;99.90;;;;;;5074050;28;20488;-81
2022/09/27 08:11:45;;;;;;;2.90;1.50;;;14.10;99.90;;;;;;5041397;28;20029;-80
2022/09/27 08:14:12;;;;;;;1.92;1.63;;;14.50;99.90;;;;;;5043219;28;20775;-80
2022/09/27 08:16:37;;;;;;;2.15;1.40;;;14.80;99.90;;;;;;5035465;28;20046;-80
2022/09/27 08:19:03;;;;;;;2.50;1.60;;;15.00;99.90;;;;;;5053595;28;20306;-80
2022/09/27 08:21:29;;;;;;;2.47;1.70;;;15.30;99.90;;;;;;5078645;28;20020;-80
2022/09/27 08:23:55;;;;;;;1.70;1.40;;;15.70;99.90;;;;;;5065588;28;20022;-81
2022/09/27 08:26:21;;;;;;;2.08;1.23;;;15.90;99.90;;;;;;5068623;28;20463;-80
2022/09/27 08:28:48;;;;;;;1.52;1.30;;;16.10;99.90;;;;;;5038731;28;20027;-80
2022/09/27 08:31:13;;;;;;;1.73;1.17;;;16.20;99.90;;;;;;5059192;28;20107;-80
2022/09/27 08:33:39;;;;;;;2.05;1.30;;;16.20;99.90;;;;;;5053917;28;20076;-80
2022/09/27 08:36:10;;;;;;;2.30;1.40;;;16.10;99.90;;;;;;5049293;28;20619;-81
2022/09/27 08:38:36;;;;;;;1.35;1.25;;;16.00;99.90;;;;;;5060057;28;20036;-80
2022/09/27 08:41:12;;;;;;;1.85;1.17;;;15.80;99.40;;;;;;5066652;28;20492;-82
2022/09/27 08:44:03;;;;;;;1.70;1.27;;;15.60;98.70;;;;;;5075201;28;20107;-82
2022/09/27 08:46:54;;;;;;;1.92;1.10;;;15.30;98.50;;;;;;5051399;28;20415;-82
2022/09/27 08:49:30;;;;;;;1.17;0.95;;;15.10;98.40;;;;;;5053417;28;20376;-82
2022/09/27 08:51:56;;;;;;;1.73;1.00;;;14.90;98.80;;;;;;5070820;28;20228;-82
2022/09/27 08:54:29;;;;;;;2.15;1.10;;;14.70;99.30;;;;;;5075188;28;20191;-83
2022/09/27 08:57:09;;;;;;;2.17;1.20;;;14.50;99.10;;;;;;5051653;28;20233;-81
2022/09/27 09:00:03;;;;;;;2.95;1.00;;;14.40;99.40;;;;;;5058305;28;20024;-83
2022/09/27 09:02:29;;;;;;;1.27;1.00;;;14.20;99.00;;;;;;5037065;28;20038;-82
2022/09/27 09:05:08;;;;;;;1.75;1.10;;;14.10;99.80;;;;;;5057353;28;20027;-83
2022/09/27 09:08:01;;;;;;;1.80;1.10;;;13.90;99.80;;;;;;5064414;28;20020;-84
2022/09/27 09:14:03;;;;;;;1.20;0.90;;;13.70;99.90;;;;;;5063840;28;20034;-83
2022/09/27 09:16:52;;;;;;;1.98;1.13;;;13.60;99.90;;;;;;5073129;28;20028;-82
2022/09/27 09:19:37;;;;;;;1.45;0.90;;;13.60;99.90;;;;;;5046977;28;20218;-82
2022/09/27 09:22:27;;;;;;;2.03;0.90;;;13.50;99.90;;;;;;5064092;28;20048;-80
2022/09/27 09:25:12;;;;;;;1.48;0.90;;;13.40;99.90;;;;;;5065668;28;20374;-82
2022/09/27 09:27:55;;;;;;;2.08;0.95;;;13.40;99.90;;;;;;5067962;28;20074;-82
2022/09/27 09:30:49;;;;;;;1.50;0.80;;;13.30;99.90;;;;;;5035442;28;20036;-83
2022/09/27 09:33:17;;;;;;;1.20;1.00;;;13.30;99.90;;;;;;5034856;28;20095;-82
2022/09/27 09:36:04;;;;;;;1.10;0.90;;;13.20;99.90;;;;;;5059460;28;20029;-82
2022/09/27 09:39:03;;;;;;;1.40;0.80;;;13.20;99.90;;;;;;5080797;28;20063;-82
2022/09/27 09:41:42;;;;;;;1.83;0.98;;;13.10;99.90;;;;;;5067359;28;20390;-82
2022/09/27 09:44:22;;;;;;;1.08;0.90;;;13.10;99.90;;;;;;5051459;28;20097;-82
2022/09/27 09:46:52;;;;;;;1.50;0.80;;;13.10;99.90;;;;;;5055362;28;20028;-82
2022/09/27 09:49:43;;;;;;;1.43;1.00;;;13.10;99.90;;;;;;5042151;28;20275;-82
2022/09/27 09:52:17;;;;;;;1.13;1.00;;;13.10;99.90;;;;;;5065139;28;20514;-82
2022/09/27 09:55:09;;;;;;;1.60;1.05;;;13.10;99.90;;;;;;5051596;28;20433;-82
2022/09/27 09:57:42;;;;;;;1.00;0.80;;;13.10;99.90;;;;;;5062727;28;20418;-83
2022/09/27 10:00:16;;;;;;;2.10;1.10;;;13.20;99.90;;;;;;5036478;28;20032;-82
2022/09/27 10:02:44;;;;;;;2.90;0.93;;;13.30;99.90;;;;;;5069274;28;20028;-82
2022/09/27 10:05:15;;;;;;;2.03;1.00;;;13.40;99.90;;;;;;5046782;28;20036;-82
2022/09/27 10:07:41;;;;;;;1.42;1.10;;;13.50;99.90;;;;;;5082445;28;20507;-81
2022/09/27 10:10:12;;;;;;;3.22;1.00;;;13.70;99.90;;;;;;5040866;28;20036;-82
2022/09/27 10:12:37;;;;;;;1.73;1.02;;;14.00;99.90;;;;;;5062962;28;20790;-81
2022/09/27 10:15:04;;;;;;;2.87;1.03;;;14.30;99.90;;;;;;5074298;28;20016;-82
2022/09/27 10:17:41;;;;;;;1.00;0.88;;;14.50;99.90;;;;;;5040340;28;20423;-82
2022/09/27 10:20:25;;;;;;;2.33;1.08;;;14.70;99.90;;;;;;5073059;28;20063;-81
2022/09/27 10:22:55;;;;;;;1.90;0.90;;;14.80;99.90;;;;;;5057863;28;20635;-82
2022/09/27 10:25:21;;;;;;;2.63;1.05;;;14.90;99.90;;;;;;5072611;28;20430;-82
2022/09/27 10:27:50;;;;;;;3.33;1.00;;;15.00;99.90;;;;;;5070728;28;20043;-80
2022/09/27 10:30:34;;;;;;;2.38;1.20;;;15.10;99.90;;;;;;5044873;28;20123;-81
2022/09/27 10:33:04;;;;;;;2.17;0.87;;;15.20;99.90;;;;;;5072391;28;20020;-81
2022/09/27 10:35:34;;;;;;;3.80;1.17;;;15.30;99.90;;;;;;5068734;28;20016;-80
2022/09/27 10:38:17;;;;;;;2.78;0.90;;;15.50;99.90;;;;;;5059959;28;20024;-80
2022/09/27 10:40:44;;;;;;;2.63;1.00;;;15.60;99.90;;;;;;5049528;28;20264;-79
2022/09/27 10:43:24;;;;;;;2.33;1.00;;;15.80;99.90;;;;;;5064006;28;20005;-80
2022/09/27 10:46:01;;;;;;;2.20;1.00;;;15.90;99.90;;;;;;5066202;28;20145;-80
2022/09/27 10:48:27;;;;;;;1.98;0.90;;;16.10;99.90;;;;;;5057711;28;20058;-80
2022/09/27 10:51:02;;;;;;;1.85;1.10;;;16.20;99.90;;;;;;5071920;28;20012;-80
2022/09/27 10:53:30;;;;;;;3.30;1.10;;;16.30;99.90;;;;;;5055791;28;20769;-80
2022/09/27 10:55:56;;;;;;;2.20;1.00;;;16.50;99.90;;;;;;5070355;28;20066;-79
2022/09/27 10:58:36;;;;;;;2.85;1.00;;;16.60;99.90;;;;;;5052050;28;20492;-79
2022/09/27 11:01:07;;;;;;;2.15;1.00;;;16.70;99.90;;;;;;5056065;28;20038;-79
2022/09/27 11:03:44;;;;;;;1.80;1.00;;;16.90;99.90;;;;;;5057343;28;20062;-79
2022/09/27 11:06:21;;;;;;;2.10;1.00;;;17.10;99.90;;;;;;5066083;28;20059;-79
2022/09/27 11:08:49;;;;;;;1.80;1.07;;;17.40;99.90;;;;;;5060654;28;20275;-79
2022/09/27 11:11:18;;;;;;;4.25;1.10;;;17.60;99.90;;;;;;5067150;28;20738;-79
2022/09/27 11:14:06;;;;;;;2.58;0.88;;;18.00;99.90;;;;;;5078360;28;20032;-80
2022/09/27 11:16:56;;;;;;;3.20;0.95;;;18.30;99.90;;;;;;5049373;28;20028;-78
2022/09/27 11:19:31;;;;;;;2.55;0.70;;;18.40;99.90;;;;;;5060577;28;20147;-79
2022/09/27 11:22:18;;;;;;;1.40;0.80;;;18.40;99.90;;;;;;5081417;28;20019;-80
2022/09/27 11:25:15;;;;;;;1.77;0.70;;;18.30;97.10;;;;;;5059276;28;20037;-81
2022/09/27 11:28:08;;;;;;;2.15;0.90;;;18.10;95.60;;;;;;5055032;28;20131;-80
2022/09/27 11:31:02;;;;;;;2.75;0.70;;;17.80;95.50;;;;;;5075189;28;20062;-80
2022/09/27 11:33:55;;;;;;;3.20;0.95;;;17.40;95.90;;;;;;5042153;28;20222;-79
2022/09/27 11:36:33;;;;;;;2.10;0.87;;;17.20;96.80;;;;;;5085451;28;20023;-80
2022/09/27 11:39:08;;;;;;;2.50;0.80;;;17.00;98.90;;;;;;5074545;28;20048;-80
2022/09/27 11:42:13;;;;;;;1.70;0.80;;;17.00;99.90;;;;;;5037387;28;20028;-80
2022/09/27 11:44:46;;;;;;;1.83;0.80;;;17.00;99.90;;;;;;5069319;28;20220;-80
2022/09/27 11:47:33;;;;;;;2.47;1.00;;;17.10;99.90;;;;;;5063842;28;20040;-79
2022/09/27 11:50:18;;;;;;;1.77;1.00;;;17.20;99.90;;;;;;5069448;27;20108;-80
2022/09/27 11:53:14;;;;;;;2.45;1.20;;;17.30;99.90;;;;;;5059417;28;20055;-79
2022/09/27 11:55:42;;;;;;;2.13;1.20;;;17.40;99.90;;;;;;5043480;28;20104;-80
2022/09/27 11:58:18;;;;;;;2.40;1.20;;;17.40;99.90;;;;;;5061421;28;20036;-80
2022/09/27 12:01:09;;;;;;;3.22;1.35;;;17.40;99.90;;;;;;5069296;28;20397;-80
2022/09/27 12:03:38;;;;;;;1.67;1.10;;;17.50;99.90;;;;;;5063367;28;20036;-79
2022/09/27 12:06:07;;;;;;;3.88;0.93;;;17.60;99.90;;;;;;5061770;28;20361;-79
2022/09/27 12:08:43;;;;;;;2.97;1.08;;;17.90;99.90;;;;;;5069462;28;20040;-78
2022/09/27 12:11:30;;;;;;;1.70;0.80;;;18.20;99.90;;;;;;5057585;28;20028;-79
2022/09/27 12:14:04;;;;;;;1.58;0.75;;;18.60;99.90;;;;;;5074716;28;20028;-78
2022/09/27 12:16:31;;;;;;;2.10;0.70;;;19.00;99.90;;;;;;5058697;28;20249;-78
2022/09/27 12:18:59;;;;;;;1.13;0.70;;;19.20;99.90;;;;;;5044763;28;20024;-79
2022/09/27 12:21:29;;;;;;;1.67;0.63;;;19.50;99.90;;;;;;5042001;28;20037;-78
2022/09/27 12:23:59;;;;;;;1.63;0.50;;;19.60;99.90;;;;;;5052903;28;20016;-80
2022/09/27 12:26:36;;;;;;;1.65;0.60;;;19.50;98.30;;;;;;5047465;28;20413;-78
2022/09/27 12:29:12;;;;;;;0.90;0.57;;;19.40;96.70;;;;;;5077452;28;20077;-78
2022/09/27 12:31:55;;;;;;;0.80;0.50;;;19.30;95.40;;;;;;5067421;28;20024;-78
2022/09/27 12:34:34;;;;;;;1.90;0.40;;;19.10;95.30;;;;;;5062657;28;20028;-78
2022/09/27 12:37:24;;;;;;;1.85;0.70;;;18.90;95.00;;;;;;5043844;28;20059;-79
2022/09/27 12:40:05;;;;;;;1.63;0.50;;;18.70;94.20;;;;;;5084089;27;20358;-78
2022/09/27 12:42:57;;;;;;;1.80;0.60;;;18.40;95.00;;;;;;5055117;28;20020;-78
2022/09/27 12:45:43;;;;;;;0.70;0.50;;;18.30;95.50;;;;;;5075511;28;20536;-78
2022/09/27 12:48:48;;;;;;;1.80;0.50;;;18.20;95.10;;;;;;5066300;28;20044;-78
2022/09/27 12:51:22;;;;;;;1.20;0.55;;;18.00;94.70;;;;;;5063482;28;20426;-79
2022/09/27 12:53:59;;;;;;;1.58;0.45;;;18.10;98.40;;;;;;5054743;28;20020;-79
2022/09/27 12:56:48;;;;;;;0.80;0.70;;;18.40;99.90;;;;;;5065975;28;20145;-78
2022/09/27 12:59:33;;;;;;;2.78;0.50;;;18.80;99.90;;;;;;5050843;28;20050;-79
2022/09/27 13:02:17;;;;;;;1.75;0.60;;;19.30;99.90;;;;;;5058499;28;20288;-78
2022/09/27 13:05:00;;;;;;;1.48;0.50;;;19.90;99.90;;;;;;5065482;28;20172;-79
2022/09/27 13:07:39;;;;;;;1.90;0.88;;;20.30;99.90;;;;;;5063315;28;20062;-78
2022/09/27 13:10:20;;;;;;;2.73;0.80;;;20.50;98.60;;;;;;5060280;28;20105;-80
2022/09/27 13:12:50;;;;;;;1.85;0.60;;;20.60;96.50;;;;;;5077050;28;20115;-79
2022/09/27 13:15:26;;;;;;;1.60;0.75;;;20.60;96.10;;;;;;5051150;28;20024;-79
2022/09/27 13:17:58;;;;;;;1.58;0.60;;;20.50;95.20;;;;;;5071413;27;20042;-79
2022/09/27 13:20:30;;;;;;;1.30;0.68;;;20.40;94.80;;;;;;5071173;28;20032;-80
2022/09/27 13:22:57;;;;;;;1.17;0.70;;;20.20;94.60;;;;;;5066107;28;20036;-79
2022/09/27 13:25:47;;;;;;;1.92;0.70;;;20.00;94.50;;;;;;5030819;28;20050;-79